Time;durP1;ratioP1;P1;durP2;ratioP2;P2;SDS_P1;SDS_P2;PMS_P1;PMS_P2;Temp;Humidity;BMP_temperature;BMP_pressure;BME280_temperature;BME280_humidity;BME280_pressure;Samples;Min_cycle;Max_cycle;Signal;HPM_P1;HPM_P2
2022/10/03 00:09:33;;;;;;;23.55;14.32;;;8.20;99.90;;;;;;21058568;28;20065;-52
2022/10/03 00:19:39;;;;;;;22.80;15.07;;;8.20;99.90;;;;;;20712392;28;20495;-51
2022/10/03 00:30:12;;;;;;;20.38;13.60;;;8.30;99.90;;;;;;20720300;28;20124;-50
2022/10/03 00:40:42;;;;;;;39.85;23.08;;;8.20;99.90;;;;;;20776195;28;20041;-48
2022/10/03 00:51:05;;;;;;;42.70;27.80;;;8.40;99.90;;;;;;20908792;28;20558;-50
2022/10/03 01:01:22;;;;;;;51.15;31.20;;;8.60;99.90;;;;;;21157688;28;20277;-57
2022/10/03 01:11:40;;;;;;;39.20;24.38;;;8.80;99.90;;;;;;21156570;28;20555;-54
2022/10/03 01:22:03;;;;;;;46.50;27.80;;;8.70;99.90;;;;;;21155929;28;20462;-52
2022/10/03 01:32:28;;;;;;;46.00;28.02;;;8.60;99.90;;;;;;21155357;28;20036;-52
2022/10/03 01:43:00;;;;;;;55.60;30.27;;;8.50;99.90;;;;;;21154362;28;20048;-54
2022/10/03 01:53:23;;;;;;;45.72;27.23;;;8.50;99.90;;;;;;21137123;28;20058;-50
2022/10/03 02:03:34;;;;;;;43.45;26.83;;;8.50;99.90;;;;;;21135594;28;20557;-53
2022/10/03 02:13:49;;;;;;;21.05;12.55;;;8.50;99.90;;;;;;21152431;28;20101;-53
2022/10/03 02:24:16;;;;;;;5.80;3.00;;;8.40;99.90;;;;;;21150451;28;20036;-53
2022/10/03 02:34:44;;;;;;;2.30;1.40;;;8.10;99.90;;;;;;21133548;28;20505;-53
2022/10/03 02:45:24;;;;;;;2.42;1.50;;;8.40;99.90;;;;;;21149835;28;20532;-54
2022/10/03 02:55:54;;;;;;;0.47;0.30;;;9.50;99.90;;;;;;21148774;28;20092;-54
2022/10/03 03:06:33;;;;;;;0.27;0.20;;;9.80;99.90;;;;;;21147716;28;20036;-53
2022/10/03 03:16:45;;;;;;;0.40;0.10;;;10.40;99.90;;;;;;21146103;28;20032;-58
2022/10/03 03:27:08;;;;;;;1.02;0.10;;;10.70;99.90;;;;;;21129313;28;20043;-51
2022/10/03 03:37:29;;;;;;;1.50;0.17;;;10.60;99.90;;;;;;21144725;28;20101;-54
2022/10/03 03:47:50;;;;;;;0.10;0.10;;;10.50;99.90;;;;;;21140429;28;20039;-49
2022/10/03 03:58:02;;;;;;;0.20;0.10;;;10.50;99.90;;;;;;21127567;28;20442;-58
2022/10/03 04:08:33;;;;;;;0.13;0.10;;;10.10;99.90;;;;;;21143221;28;20073;-51
2022/10/03 04:18:57;;;;;;;0.15;0.10;;;10.10;99.90;;;;;;21133821;28;20484;-52
2022/10/03 04:29:37;;;;;;;0.25;0.13;;;10.10;99.90;;;;;;21141932;28;20100;-58
2022/10/03 04:39:54;;;;;;;0.10;0.10;;;10.40;99.90;;;;;;21141774;28;20056;-51
2022/10/03 04:50:32;;;;;;;0.00;0.00;;;10.40;99.90;;;;;;21140757;28;20036;-52
2022/10/03 05:00:45;;;;;;;0.28;0.10;;;10.20;99.90;;;;;;21124139;28;20332;-59
2022/10/03 05:11:33;;;;;;;0.00;0.00;;;10.40;99.90;;;;;;21140078;28;20036;-58
2022/10/03 05:21:39;;;;;;;1.00;0.10;;;10.40;99.90;;;;;;21139693;28;20040;-58
2022/10/03 05:32:05;;;;;;;0.17;0.10;;;10.30;99.90;;;;;;21124970;28;20058;-50
2022/10/03 05:42:22;;;;;;;0.22;0.00;;;10.30;99.90;;;;;;21154256;28;20101;-53
2022/10/03 05:52:45;;;;;;;1.27;0.10;;;10.20;99.90;;;;;;21154047;28;20559;-52
2022/10/03 06:03:15;;;;;;;0.30;0.10;;;10.20;99.90;;;;;;20746565;28;20162;-49
2022/10/03 06:13:48;;;;;;;0.20;0.00;;;10.50;99.90;;;;;;20730018;28;20557;-53
2022/10/03 06:24:12;;;;;;;0.30;0.00;;;10.70;99.90;;;;;;20728794;28;20041;-53
2022/10/03 06:34:43;;;;;;;0.13;0.10;;;10.80;99.90;;;;;;20858172;28;20073;-50
2022/10/03 06:44:49;;;;;;;1.87;0.10;;;10.90;99.90;;;;;;21150089;28;20032;-59
2022/10/03 06:55:19;;;;;;;0.30;0.00;;;10.90;99.90;;;;;;21148696;28;20345;-48
2022/10/03 07:05:59;;;;;;;0.00;0.00;;;11.20;99.90;;;;;;21131807;28;20106;-52
2022/10/03 07:16:23;;;;;;;;;;;12.00;99.90;;;;;;21147903;28;20058;-52
2022/10/03 07:27:09;;;;;;;0.00;0.00;;;12.70;99.90;;;;;;21146114;28;19973;-60
2022/10/03 07:48:12;;;;;;;0.10;0.00;;;13.90;99.90;;;;;;21145388;28;20039;-52
2022/10/03 07:58:36;;;;;;;0.00;0.00;;;14.40;99.90;;;;;;21126989;28;20039;-52
2022/10/03 08:09:01;;;;;;;0.00;0.00;;;14.90;99.90;;;;;;21126980;28;20496;-54
2022/10/03 08:19:22;;;;;;;0.25;0.00;;;15.30;99.90;;;;;;20801234;28;20072;-50
2022/10/03 08:29:36;;;;;;;0.10;0.00;;;15.50;99.30;;;;;;20817868;28;20042;-52
2022/10/03 08:40:04;;;;;;;0.00;0.00;;;15.90;98.60;;;;;;20853667;28;20045;-60
2022/10/03 08:50:51;;;;;;;1.05;0.00;;;16.20;97.70;;;;;;20931626;28;20070;-51
2022/10/03 09:01:14;;;;;;;0.08;0.00;;;16.40;97.10;;;;;;20852043;28;20052;-52
2022/10/03 09:11:36;;;;;;;0.00;0.00;;;16.40;96.60;;;;;;20752418;28;20120;-53
2022/10/03 09:21:57;;;;;;;0.00;0.00;;;16.60;95.60;;;;;;20801136;28;20049;-50
2022/10/03 09:32:18;;;;;;;0.80;0.00;;;17.00;96.10;;;;;;21058975;28;20040;-53
2022/10/03 09:42:37;;;;;;;0.00;0.00;;;17.60;94.50;;;;;;21085971;28;20043;-49
2022/10/03 09:52:45;;;;;;;0.13;0.10;;;17.70;93.70;;;;;;21069492;28;20105;-49
2022/10/03 10:03:21;;;;;;;0.10;0.10;;;18.10;95.00;;;;;;21068893;28;20058;-51
2022/10/03 10:13:42;;;;;;;0.03;0.00;;;19.10;94.60;;;;;;21063352;28;20079;-49
2022/10/03 10:23:54;;;;;;;0.03;0.00;;;19.10;92.30;;;;;;21025966;28;20028;-53
2022/10/03 10:34:13;;;;;;;0.47;0.10;;;18.80;92.30;;;;;;21071762;28;20100;-50
2022/10/03 10:44:46;;;;;;;0.00;0.00;;;18.80;91.40;;;;;;21167168;28;20039;-54
2022/10/03 10:55:10;;;;;;;4.75;0.20;;;18.70;92.10;;;;;;21162720;28;20028;-60
2022/10/03 11:05:50;;;;;;;0.30;0.17;;;19.20;90.60;;;;;;21129578;28;20093;-52
2022/10/03 11:16:11;;;;;;;0.75;0.20;;;20.40;95.00;;;;;;21130786;28;20388;-60
2022/10/03 11:26:38;;;;;;;0.40;0.20;;;20.70;95.70;;;;;;21146192;28;20080;-51
2022/10/03 11:36:52;;;;;;;1.48;0.20;;;21.30;94.60;;;;;;21136474;28;20052;-60
2022/10/03 11:47:31;;;;;;;0.82;0.20;;;21.10;95.80;;;;;;21128195;28;20438;-52
2022/10/03 11:57:38;;;;;;;0.47;0.20;;;21.30;95.30;;;;;;21127539;28;20032;-50
2022/10/03 12:18:22;;;;;;;0.65;0.20;;;21.50;94.60;;;;;;21142217;28;20040;-53
2022/10/03 12:28:35;;;;;;;0.20;0.20;;;21.60;94.50;;;;;;21125390;28;20085;-51
2022/10/03 12:39:12;;;;;;;0.20;0.10;;;21.40;95.60;;;;;;21124395;28;20100;-52
2022/10/03 12:49:41;;;;;;;0.63;0.20;;;21.40;95.30;;;;;;21167884;28;20065;-51
2022/10/03 12:59:53;;;;;;;3.23;0.50;;;21.20;93.00;;;;;;21144569;28;20433;-60
2022/10/03 13:10:38;;;;;;;0.30;0.30;;;21.30;97.00;;;;;;21168254;28;20289;-61
2022/10/03 13:20:49;;;;;;;0.40;0.40;;;21.10;96.00;;;;;;21143895;28;20093;-60
2022/10/03 13:30:59;;;;;;;2.08;1.30;;;20.80;97.10;;;;;;21167924;28;20430;-52
2022/10/03 13:41:16;;;;;;;1.90;1.80;;;20.10;98.80;;;;;;21166789;28;20096;-53
2022/10/03 13:51:44;;;;;;;6.85;4.85;;;19.40;99.70;;;;;;21114243;27;20039;-49
2022/10/03 14:02:16;;;;;;;5.23;4.63;;;18.90;99.90;;;;;;21153370;28;20085;-51
2022/10/03 14:12:44;;;;;;;7.22;6.13;;;18.40;99.90;;;;;;21151993;28;20077;-51
2022/10/03 14:23:20;;;;;;;10.13;6.00;;;18.00;99.90;;;;;;21151295;28;20057;-50
2022/10/03 14:33:47;;;;;;;10.98;8.88;;;17.70;99.90;;;;;;21131652;28;20039;-51
2022/10/03 14:43:57;;;;;;;9.55;7.35;;;17.20;99.90;;;;;;21150111;28;20035;-57
2022/10/03 14:54:26;;;;;;;14.45;9.73;;;16.80;99.90;;;;;;21132235;28;20039;-51
2022/10/03 15:04:40;;;;;;;12.13;10.63;;;16.50;99.90;;;;;;21069772;28;20043;-54
2022/10/03 15:15:05;;;;;;;12.15;10.95;;;16.20;99.90;;;;;;21147728;28;20031;-50
2022/10/03 15:25:19;;;;;;;15.07;11.07;;;15.70;99.90;;;;;;21146397;28;20062;-51
2022/10/03 15:35:29;;;;;;;15.15;11.45;;;15.30;99.90;;;;;;21145559;28;20039;-57
2022/10/03 15:45:35;;;;;;;19.98;12.35;;;14.80;99.90;;;;;;21144725;28;20438;-56
2022/10/03 15:55:45;;;;;;;2.25;1.50;;;14.10;99.90;;;;;;21143928;28;20093;-51
2022/10/03 16:06:18;;;;;;;6.90;3.95;;;13.40;99.90;;;;;;21143229;28;20031;-53
2022/10/03 16:16:34;;;;;;;7.03;4.30;;;12.60;99.90;;;;;;21142795;28;20027;-52
2022/10/03 16:27:06;;;;;;;3.35;1.40;;;12.20;99.90;;;;;;21119019;28;20484;-54
2022/10/03 16:37:25;;;;;;;3.35;1.30;;;11.80;99.90;;;;;;21124651;28;20043;-53
2022/10/03 16:47:35;;;;;;;0.63;0.30;;;11.40;99.90;;;;;;21141510;28;20057;-54
2022/10/03 16:57:58;;;;;;;1.10;0.70;;;11.00;99.90;;;;;;21140921;28;20484;-52
2022/10/03 17:08:03;;;;;;;0.88;0.20;;;10.60;99.90;;;;;;21123723;28;20035;-54
2022/10/03 17:18:26;;;;;;;0.25;0.00;;;10.60;99.90;;;;;;21140147;28;20057;-59
2022/10/03 17:28:34;;;;;;;0.40;0.10;;;10.40;99.90;;;;;;21143367;28;20032;-57
2022/10/03 17:38:39;;;;;;;0.30;0.10;;;10.00;99.90;;;;;;21155040;28;20499;-51
2022/10/03 17:49:06;;;;;;;0.20;0.10;;;9.80;99.90;;;;;;21154267;28;20096;-59
2022/10/03 17:59:23;;;;;;;0.20;0.10;;;9.80;99.90;;;;;;21172316;28;20043;-56
2022/10/03 18:09:39;;;;;;;11.68;0.20;;;9.80;99.90;;;;;;21152893;28;20036;-58
2022/10/03 18:19:50;;;;;;;0.47;0.03;;;9.80;99.90;;;;;;21135150;28;20065;-55
2022/10/03 18:30:13;;;;;;;0.90;0.03;;;9.60;99.90;;;;;;21151199;28;20043;-52
2022/10/03 18:40:46;;;;;;;0.10;0.08;;;9.60;99.90;;;;;;21149908;28;20043;-55
2022/10/03 18:51:10;;;;;;;0.20;0.10;;;9.50;99.90;;;;;;21146044;28;20442;-54
2022/10/03 19:01:19;;;;;;;2.22;1.02;;;9.20;99.90;;;;;;21144990;28;20094;-55
2022/10/03 19:11:39;;;;;;;2.33;0.43;;;9.10;99.90;;;;;;21129843;28;20039;-55
2022/10/03 19:21:43;;;;;;;1.60;0.60;;;9.00;99.90;;;;;;21145954;28;20389;-59
2022/10/03 19:31:52;;;;;;;0.77;0.50;;;8.80;99.90;;;;;;21145730;28;20031;-53
2022/10/03 19:42:22;;;;;;;0.47;0.00;;;8.60;99.90;;;;;;21074846;28;20567;-53
2022/10/03 19:52:33;;;;;;;0.10;0.10;;;8.70;99.90;;;;;;21043338;28;20036;-52
2022/10/03 20:02:36;;;;;;;1.55;0.10;;;8.60;99.90;;;;;;21058973;28;20032;-53
2022/10/03 20:13:02;;;;;;;1.65;0.10;;;8.50;99.90;;;;;;21089063;28;20481;-53
2022/10/03 20:23:09;;;;;;;0.10;0.03;;;8.60;99.90;;;;;;21057458;28;20416;-53
2022/10/03 20:33:27;;;;;;;0.28;0.10;;;8.60;99.90;;;;;;21055429;28;20091;-52
2022/10/03 20:43:48;;;;;;;0.28;0.10;;;8.70;99.90;;;;;;21036942;28;20118;-52
2022/10/03 20:53:54;;;;;;;1.55;0.20;;;8.70;99.90;;;;;;21052785;28;20416;-55
2022/10/03 21:04:12;;;;;;;1.88;0.20;;;8.60;99.90;;;;;;21076274;28;20044;-53
2022/10/03 21:14:31;;;;;;;0.80;0.17;;;8.50;99.90;;;;;;21070418;28;20039;-51
2022/10/03 21:24:36;;;;;;;1.38;0.17;;;8.70;99.90;;;;;;21067860;28;20032;-52
2022/10/03 21:34:47;;;;;;;2.38;0.20;;;8.60;99.90;;;;;;21049913;28;20036;-54
2022/10/03 21:44:58;;;;;;;3.35;0.22;;;8.30;99.90;;;;;;21066523;28;20040;-53
2022/10/03 21:55:06;;;;;;;0.20;0.10;;;8.20;99.90;;;;;;21065326;28;20466;-55
2022/10/03 22:05:12;;;;;;;0.95;0.10;;;8.20;99.90;;;;;;21065017;28;20109;-56
2022/10/03 22:15:24;;;;;;;1.38;0.10;;;8.10;99.90;;;;;;21047245;28;20057;-50
2022/10/03 22:25:47;;;;;;;3.22;0.17;;;8.00;99.90;;;;;;21063180;28;20062;-53
2022/10/03 22:35:59;;;;;;;0.80;0.30;;;7.90;99.90;;;;;;21045952;28;20554;-52
2022/10/03 22:46:01;;;;;;;;;;;8.00;99.90;;;;;;21062769;28;20040;-51
2022/10/03 22:56:30;;;;;;;4.20;0.50;;;8.00;99.90;;;;;;21060733;28;19908;-54
2022/10/03 23:07:18;;;;;;;2.63;0.30;;;7.70;99.90;;;;;;20737444;28;20180;-54
2022/10/03 23:17:38;;;;;;;1.15;0.30;;;7.80;99.90;;;;;;20401110;28;20090;-52
2022/10/03 23:27:57;;;;;;;0.95;0.30;;;7.80;99.90;;;;;;20478061;28;20599;-50
2022/10/03 23:38:00;;;;;;;2.07;0.40;;;7.90;99.90;;;;;;20612415;28;20119;-53
2022/10/03 23:48:13;;;;;;;2.05;0.30;;;7.70;99.90;;;;;;21024844;28;20493;-50
2022/10/03 23:58:28;;;;;;;0.45;0.30;;;7.50;99.90;;;;;;21056413;28;20101;-56
